Terminal Aerodrome Forecast
Issued by NWS El Paso, TX

Home | Current Version | Previous Version | Text Only | Print | Product List | Glossary On
Versions: 1 2 3 4 5 6 7 8 9 10 11 12 13 14
736
FTUS44 KEPZ 221129
TAFELP
TAF
KELP 221129Z 2212/2312 VRB04KT P6SM FEW050 SCT110 BKN220
     FM221700 26008KT P6SM FEW140 SCT250
     FM222200 29011G17KT P6SM FEW100 SCT150
     FM230300 30010KT P6SM SCT150=

USA.gov is the U.S. government's official web portal to all federal, state and local government web resources and services.